createdAt,value
2019-06-01T00:04:38.670Z,10.15
2019-06-01T00:10:43.027Z,9.10
2019-06-01T00:16:48.028Z,11.28
2019-06-01T00:22:52.330Z,11.40
2019-06-01T00:28:56.555Z,10.38
2019-06-01T00:35:01.108Z,10.28
2019-06-01T00:41:05.579Z,10.53
2019-06-01T00:47:09.941Z,10.80
2019-06-01T00:53:14.163Z,11.90
2019-06-01T00:59:18.381Z,11.53
2019-06-01T01:05:23.358Z,11.00
2019-06-01T01:11:27.679Z,10.30
2019-06-01T01:17:32.075Z,10.93
2019-06-01T01:23:36.380Z,11.25
2019-06-01T01:29:40.740Z,10.23
2019-06-01T01:35:45.047Z,10.82
2019-06-01T01:41:50.024Z,9.95
2019-06-01T01:47:55.057Z,9.85
2019-06-01T01:53:59.387Z,9.93
2019-06-01T02:00:04.176Z,9.80
2019-06-01T02:06:08.633Z,11.73
2019-06-01T02:12:13.031Z,10.32
2019-06-01T02:18:17.250Z,10.28
2019-06-01T02:24:21.583Z,10.48
2019-06-01T02:30:25.853Z,10.13
2019-06-01T02:36:30.068Z,11.33
2019-06-01T02:42:34.326Z,10.40
2019-06-01T02:48:38.637Z,10.60
2019-06-01T02:54:42.834Z,10.75
2019-06-01T03:01:07.078Z,11.15
2019-06-01T03:07:13.456Z,10.90
2019-06-01T03:13:19.544Z,10.93
2019-06-01T03:19:25.993Z,10.05
2019-06-01T03:25:30.301Z,9.85
2019-06-01T03:31:34.593Z,10.70
2019-06-01T03:37:38.844Z,10.08
2019-06-01T03:43:43.130Z,11.03
2019-06-01T03:49:47.330Z,10.50
2019-06-01T03:55:51.657Z,9.83
2019-06-01T04:01:55.890Z,10.48
2019-06-01T04:08:01.267Z,12.65
2019-06-01T04:14:06.171Z,13.78
2019-06-01T04:20:10.603Z,12.33
2019-06-01T04:26:14.896Z,13.03
2019-06-01T04:32:19.249Z,12.23
2019-06-01T04:38:23.473Z,11.85
2019-06-01T04:44:27.765Z,13.28
2019-06-01T04:50:35.549Z,13.78
2019-06-01T04:56:39.919Z,15.13
2019-06-01T05:02:44.226Z,15.53
2019-06-01T05:08:48.545Z,14.38
2019-06-01T05:14:52.819Z,12.35
2019-06-01T05:20:57.221Z,9.20
2019-06-01T05:27:01.472Z,11.78
2019-06-01T05:33:21.373Z,9.15
2019-06-01T05:39:12.321Z,7.95
2019-06-01T05:45:17.181Z,8.28
2019-06-01T05:51:22.981Z,8.08
2019-06-01T05:57:27.341Z,7.55
2019-06-01T06:03:39.918Z,7.50
2019-06-01T06:09:37.600Z,7.62
2019-06-01T06:15:41.890Z,7.08
2019-06-01T06:21:46.092Z,6.42
2019-06-01T06:27:50.740Z,7.97
2019-06-01T06:33:56.998Z,6.65
2019-06-01T06:40:01.148Z,6.67
2019-06-01T06:46:05.409Z,7.50
2019-06-01T06:52:09.638Z,7.65
2019-06-01T06:58:14.103Z,9.85
2019-06-01T07:04:19.267Z,10.40
2019-06-01T07:10:24.245Z,8.53
2019-06-01T07:16:28.540Z,8.90
2019-06-01T07:22:32.749Z,8.80
2019-06-01T07:28:37.084Z,7.60
2019-06-01T07:34:42.790Z,8.73
2019-06-01T07:40:47.283Z,5.28
2019-06-01T07:46:50.892Z,7.97
2019-06-01T07:52:55.092Z,7.55
2019-06-01T07:58:59.332Z,12.10
2019-06-01T08:05:03.534Z,10.58
2019-06-01T08:11:07.773Z,9.35
2019-06-01T08:17:11.975Z,10.40
2019-06-01T08:23:16.623Z,10.82
2019-06-01T08:29:22.507Z,9.18
2019-06-01T08:35:27.017Z,7.45
2019-06-01T08:41:34.003Z,14.25
2019-06-01T08:47:38.363Z,8.88
2019-06-01T08:53:42.589Z,10.15
2019-06-01T08:59:46.846Z,9.13
2019-06-01T09:05:51.041Z,7.55
2019-06-01T09:11:55.437Z,9.13
2019-06-01T09:17:59.657Z,7.83
2019-06-01T09:24:04.019Z,5.83
2019-06-01T09:30:08.831Z,6.60
2019-06-01T09:36:13.086Z,9.00
2019-06-01T09:42:17.527Z,6.28
2019-06-01T09:48:21.735Z,5.95
2019-06-01T09:54:25.922Z,5.12
2019-06-01T10:00:30.388Z,8.80
2019-06-01T10:06:34.751Z,9.63
2019-06-01T10:12:39.174Z,7.50
2019-06-01T10:18:43.381Z,4.97
2019-06-01T10:24:47.665Z,4.30
2019-06-01T10:30:51.860Z,6.50
2019-06-01T10:36:56.336Z,5.58
2019-06-01T10:43:00.624Z,8.08
2019-06-01T10:49:04.858Z,7.30
2019-06-01T10:55:09.059Z,4.05
2019-06-01T11:01:13.482Z,4.92
2019-06-01T11:07:20.441Z,3.55
2019-06-01T11:13:24.868Z,3.40
2019-06-01T11:19:29.077Z,3.17
2019-06-01T11:25:33.453Z,3.10
2019-06-01T11:31:38.319Z,3.27
2019-06-01T11:37:42.571Z,3.67
2019-06-01T11:43:46.809Z,3.98
2019-06-01T11:49:51.008Z,4.42
2019-06-01T11:55:56.519Z,4.55
2019-06-01T12:02:01.051Z,6.47
2019-06-01T12:08:05.238Z,5.60
2019-06-01T12:14:12.596Z,7.15
2019-06-01T12:20:17.234Z,4.83
2019-06-01T12:26:22.304Z,4.12
2019-06-01T12:32:26.535Z,4.10
2019-06-01T12:38:32.393Z,4.37
2019-06-01T12:44:36.674Z,5.50
2019-06-01T12:50:42.114Z,5.87
2019-06-01T12:56:47.726Z,4.28
2019-06-01T13:03:03.492Z,6.72
2019-06-01T13:08:58.537Z,3.25
2019-06-01T13:15:02.796Z,3.65
2019-06-01T13:21:06.977Z,3.17
2019-06-01T13:27:11.271Z,4.78
2019-06-01T13:33:15.572Z,3.52
2019-06-01T13:39:19.743Z,3.60
2019-06-01T13:45:24.031Z,3.87
2019-06-01T13:51:28.241Z,3.30
2019-06-01T13:57:32.559Z,4.45
2019-06-01T14:03:36.752Z,3.22
2019-06-01T14:09:41.018Z,3.27
2019-06-01T14:15:45.511Z,2.50
2019-06-01T14:21:50.469Z,3.52
2019-06-01T14:27:56.442Z,2.27
2019-06-01T14:34:00.825Z,2.60
2019-06-01T14:40:05.520Z,3.55
2019-06-01T14:46:09.783Z,2.30
2019-06-01T14:52:13.968Z,2.45
2019-06-01T14:58:18.201Z,2.22
2019-06-01T15:04:22.547Z,1.90
2019-06-01T15:10:26.824Z,2.37
2019-06-01T15:16:31.012Z,2.62
2019-06-01T15:22:35.299Z,2.35
2019-06-01T15:28:39.517Z,2.50
2019-06-01T15:34:43.970Z,3.90
2019-06-01T15:40:48.164Z,3.52
2019-06-01T15:46:53.736Z,2.58
2019-06-01T15:52:59.231Z,2.67
2019-06-01T15:59:03.642Z,2.62
2019-06-01T16:05:08.225Z,2.40
2019-06-01T16:11:12.431Z,1.95
2019-06-01T16:17:16.767Z,2.22
2019-06-01T16:23:21.042Z,2.15
2019-06-01T16:29:25.271Z,4.25
2019-06-01T16:35:29.672Z,2.90
2019-06-01T16:41:34.037Z,3.55
2019-06-01T16:47:38.262Z,3.62
2019-06-01T16:53:42.908Z,2.27
2019-06-01T16:59:47.207Z,5.25
2019-06-01T17:05:51.542Z,2.65
2019-06-01T17:11:56.658Z,4.87
2019-06-01T17:18:04.813Z,3.95
2019-06-01T17:24:08.153Z,4.92
2019-06-01T17:30:12.502Z,2.55
2019-06-01T17:36:16.714Z,2.50
2019-06-01T17:42:21.042Z,3.17
2019-06-01T17:48:27.035Z,2.55
2019-06-01T17:54:31.556Z,6.87
2019-06-01T18:00:36.094Z,8.95
2019-06-01T18:06:40.302Z,10.58
2019-06-01T18:12:44.972Z,8.35
2019-06-01T18:18:49.242Z,8.33
2019-06-01T18:24:53.469Z,8.15
2019-06-01T18:30:57.746Z,8.43
2019-06-01T18:37:03.163Z,7.33
2019-06-01T18:43:11.936Z,12.28
2019-06-01T18:49:18.272Z,11.83
2019-06-01T18:55:22.307Z,9.15
2019-06-01T19:01:26.668Z,9.15
2019-06-01T19:07:30.945Z,11.43
2019-06-01T19:13:35.186Z,9.05
2019-06-01T19:19:39.443Z,11.65
2019-06-01T19:25:43.989Z,9.15
2019-06-01T19:31:48.244Z,10.90
2019-06-01T19:37:52.535Z,9.48
2019-06-01T19:43:56.784Z,9.75
2019-06-01T19:50:01.065Z,12.75
2019-06-01T19:56:05.378Z,11.05
2019-06-01T20:02:23.180Z,10.80
2019-06-01T20:08:16.252Z,13.58
2019-06-01T20:14:20.557Z,11.65
2019-06-01T20:20:24.835Z,12.40
2019-06-01T20:26:40.438Z,12.88
2019-06-01T20:32:35.022Z,12.47
2019-06-01T20:38:39.247Z,11.90
2019-06-01T20:44:43.590Z,12.50
2019-06-01T20:50:47.916Z,13.20
2019-06-01T20:56:52.238Z,14.03
2019-06-01T21:02:56.414Z,15.00
2019-06-01T21:09:00.640Z,15.48
2019-06-01T21:15:06.380Z,16.42
2019-06-01T21:21:10.695Z,15.60
2019-06-01T21:27:16.486Z,15.45
2019-06-01T21:33:21.717Z,16.90
2019-06-01T21:39:26.842Z,16.65
2019-06-01T21:45:31.096Z,17.17
2019-06-01T21:51:35.443Z,17.32
2019-06-01T21:57:39.667Z,17.17
2019-06-01T22:03:43.974Z,19.30
2019-06-01T22:09:48.174Z,18.25
2019-06-01T22:15:52.510Z,17.95
2019-06-01T22:21:56.730Z,17.48
2019-06-01T22:28:00.999Z,19.32
2019-06-01T22:34:05.992Z,20.12
2019-06-01T22:40:10.501Z,20.12
2019-06-01T22:46:14.773Z,20.90
2019-06-01T22:52:19.110Z,21.40
2019-06-01T22:58:23.411Z,22.37
2019-06-01T23:04:29.137Z,24.07
2019-06-01T23:10:35.453Z,22.80
2019-06-01T23:16:39.462Z,23.05
2019-06-01T23:22:43.892Z,23.18
2019-06-01T23:28:48.213Z,23.57
2019-06-01T23:34:52.471Z,23.65
2019-06-01T23:40:56.683Z,23.85
2019-06-01T23:47:01.078Z,22.50
2019-06-01T23:53:13.509Z,21.65
2019-06-01T23:59:11.193Z,21.95
